Time;durP1;ratioP1;P1;durP2;ratioP2;P2;SDS_P1;SDS_P2;PMS_P1;PMS_P2;Temp;Humidity;BMP_temperature;BMP_pressure;BME280_temperature;BME280_humidity;BME280_pressure;Samples;Min_cycle;Max_cycle;Signal;HPM_P1;HPM_P2
2022/06/02 00:00:01;;;;;;;7.00;5.68;;;;;;;;;;5118573;27;20478;-73
2022/06/02 00:02:50;;;;;;;7.38;5.68;;;;;;;;;;5121379;27;20155;-73
2022/06/02 00:05:26;;;;;;;6.85;5.45;;;;;;;;;;5099117;27;20038;-73
2022/06/02 00:08:19;;;;;;;6.95;5.47;;;;;;;;;;5116914;27;20035;-76
2022/06/02 00:11:04;;;;;;;6.20;5.22;;;;;;;;;;5106990;27;21993;-73
2022/06/02 00:14:10;;;;;;;7.82;5.72;;;;;;;;;;5112990;27;20038;-73
2022/06/02 00:17:06;;;;;;;8.38;5.85;;;;;;;;;;5121038;27;20046;-72
2022/06/02 00:19:57;;;;;;;7.32;5.90;;;;;;;;;;5104791;27;20030;-75
2022/06/02 00:22:30;;;;;;;6.80;5.38;;;;;;;;;;5106768;27;20040;-73
2022/06/02 00:25:14;;;;;;;6.80;5.50;;;;;;;;;;5116240;27;20026;-74
2022/06/02 00:27:39;;;;;;;;;;;;;;;;;;5107173;27;20467;-76
2022/06/02 00:30:22;;;;;;;7.57;5.27;;;;;;;;;;5118849;27;19915;-73
2022/06/02 00:33:21;;;;;;;7.18;5.32;;;;;;;;;;5104704;27;20283;-77
2022/06/02 00:35:46;;;;;;;8.00;5.85;;;;;;;;;;5098174;27;20047;-75
2022/06/02 00:38:32;;;;;;;8.30;6.32;;;;;;;;;;5097303;27;20023;-77
2022/06/02 00:41:10;;;;;;;7.63;5.63;;;;;;;;;;5119401;27;20360;-73
2022/06/02 00:43:51;;;;;;;7.03;5.65;;;;;;;;;;5121994;27;20407;-76
2022/06/02 00:46:38;;;;;;;8.02;5.68;;;;;;;;;;5121395;27;20454;-76
2022/06/02 00:49:33;;;;;;;7.60;5.90;;;;;;;;;;5118877;27;20482;-76
2022/06/02 00:52:13;;;;;;;8.02;6.13;;;;;;;;;;5104933;27;20071;-74
2022/06/02 00:58:01;;;;;;;7.05;5.93;;;;;;;;;;5116994;27;21010;-76
2022/06/02 01:00:37;;;;;;;7.28;6.00;;;;;;;;;;5101340;27;20015;-73
2022/06/02 01:03:07;;;;;;;7.20;6.10;;;;;;;;;;5114525;27;20427;-77
2022/06/02 01:05:41;;;;;;;8.35;5.90;;;;;;;;;;5116686;27;20024;-77
2022/06/02 01:08:10;;;;;;;7.43;5.90;;;;;;;;;;5101112;27;20031;-75
2022/06/02 01:10:54;;;;;;;14.48;6.55;;;;;;;;;;5099368;27;20026;-73
2022/06/02 01:13:26;;;;;;;9.18;6.72;;;;;;;;;;5118002;27;20027;-76
2022/06/02 01:16:21;;;;;;;7.80;6.18;;;;;;;;;;5110067;27;20034;-76
2022/06/02 01:19:09;;;;;;;8.38;6.45;;;;;;;;;;5102181;27;20056;-73
2022/06/02 01:22:17;;;;;;;8.90;6.60;;;;;;;;;;5118162;27;20387;-74
2022/06/02 01:24:52;;;;;;;7.30;5.97;;;;;;;;;;5115722;27;20027;-76
2022/06/02 01:27:39;;;;;;;8.35;6.82;;;;;;;;;;5121169;27;20059;-73
2022/06/02 01:30:49;;;;;;;8.02;6.60;;;;;;;;;;5105591;27;20027;-73
2022/06/02 01:33:34;;;;;;;8.02;6.55;;;;;;;;;;5102734;27;20058;-75
2022/06/02 01:36:09;;;;;;;9.27;7.40;;;;;;;;;;5120223;27;20032;-73
2022/06/02 01:38:58;;;;;;;8.93;6.88;;;;;;;;;;5121775;27;20420;-75
2022/06/02 01:41:27;;;;;;;8.07;6.88;;;;;;;;;;5119820;27;20027;-76
2022/06/02 01:44:02;;;;;;;8.32;6.63;;;;;;;;;;5115028;27;20028;-76
2022/06/02 01:47:01;;;;;;;8.85;6.88;;;;;;;;;;5116207;27;20028;-76
2022/06/02 01:49:27;;;;;;;8.90;7.28;;;;;;;;;;5087422;28;20031;-75
2022/06/02 01:51:58;;;;;;;9.23;7.45;;;;;;;;;;5116398;27;20072;-76
2022/06/02 01:55:00;;;;;;;8.80;7.20;;;;;;;;;;5114089;27;20034;-76
2022/06/02 01:58:03;;;;;;;9.13;7.35;;;;;;;;;;5122192;28;20027;-73
2022/06/02 02:00:32;;;;;;;9.75;7.93;;;;;;;;;;5115523;28;21822;-73
2022/06/02 02:03:24;;;;;;;10.65;8.65;;;;;;;;;;5113293;28;20040;-73
2022/06/02 02:06:00;;;;;;;10.73;8.10;;;;;;;;;;5115003;28;20076;-76
2022/06/02 02:08:53;;;;;;;8.98;7.43;;;;;;;;;;5117184;28;20050;-76
2022/06/02 02:11:28;;;;;;;10.00;8.38;;;;;;;;;;5116416;28;20027;-76
2022/06/02 02:14:05;;;;;;;10.57;8.43;;;;;;;;;;5094337;28;20059;-74
2022/06/02 02:16:50;;;;;;;10.30;8.70;;;;;;;;;;5114147;28;20027;-73
2022/06/02 02:19:25;;;;;;;10.60;8.80;;;;;;;;;;5115306;28;20020;-76
2022/06/02 02:22:19;;;;;;;10.20;8.50;;;;;;;;;;5113041;28;20031;-73
2022/06/02 02:24:47;;;;;;;11.43;9.15;;;;;;;;;;5105077;28;20402;-73
2022/06/02 02:27:15;;;;;;;10.35;8.48;;;;;;;;;;5113667;28;20031;-76
2022/06/02 02:29:57;;;;;;;10.20;8.38;;;;;;;;;;5116334;28;20019;-74
2022/06/02 02:33:00;;;;;;;9.27;7.95;;;;;;;;;;5119623;28;20023;-73
2022/06/02 02:35:54;;;;;;;10.70;7.60;;;;;;;;;;5116628;28;20075;-76
2022/06/02 02:38:37;;;;;;;;;;;;;;;;;;5105376;28;20031;-76
2022/06/02 02:41:06;;;;;;;8.57;7.10;;;;;;;;;;5101861;28;19922;-76
2022/06/02 02:43:54;;;;;;;10.32;7.47;;;;;;;;;;5098374;28;20030;-74
2022/06/02 02:46:30;;;;;;;8.80;7.25;;;;;;;;;;5112393;28;20391;-76
2022/06/02 02:49:21;;;;;;;10.20;8.68;;;;;;;;;;5105451;28;20542;-75
2022/06/02 02:51:49;;;;;;;9.32;7.50;;;;;;;;;;5102246;27;20027;-76
2022/06/02 02:54:23;;;;;;;10.07;7.85;;;;;;;;;;5115547;28;20437;-72
2022/06/02 02:57:02;;;;;;;9.27;7.78;;;;;;;;;;5113823;28;20023;-76
2022/06/02 02:59:49;;;;;;;10.20;7.40;;;;;;;;;;5099589;28;21523;-75
2022/06/02 03:02:24;;;;;;;8.77;7.63;;;;;;;;;;5099646;27;20030;-75
2022/06/02 03:05:00;;;;;;;10.10;7.45;;;;;;;;;;5124061;27;20034;-72
2022/06/02 03:07:29;;;;;;;9.85;7.55;;;;;;;;;;5117251;27;20132;-72
2022/06/02 03:10:23;;;;;;;8.95;7.45;;;;;;;;;;5099761;27;20123;-72
2022/06/02 03:13:10;;;;;;;10.05;7.78;;;;;;;;;;5123018;27;20460;-74
2022/06/02 03:15:42;;;;;;;9.63;7.30;;;;;;;;;;5123920;27;20607;-74
2022/06/02 03:18:28;;;;;;;9.20;7.35;;;;;;;;;;5114018;27;20114;-72
2022/06/02 03:21:17;;;;;;;8.60;6.57;;;;;;;;;;5118661;27;20486;-72
2022/06/02 03:23:57;;;;;;;8.38;6.63;;;;;;;;;;5104734;27;20478;-76
2022/06/02 03:26:50;;;;;;;7.45;6.10;;;;;;;;;;5097534;27;20386;-73
2022/06/02 03:29:34;;;;;;;7.13;5.70;;;;;;;;;;5119683;27;20031;-73
2022/06/02 03:32:09;;;;;;;7.57;5.60;;;;;;;;;;5116733;27;20027;-73
2022/06/02 03:34:45;;;;;;;7.57;5.78;;;;;;;;;;5103776;27;20061;-73
2022/06/02 03:37:16;;;;;;;7.68;6.25;;;;;;;;;;5113233;27;20487;-74
2022/06/02 03:40:05;;;;;;;7.72;6.05;;;;;;;;;;5122950;27;20379;-75
2022/06/02 03:42:45;;;;;;;8.18;6.20;;;;;;;;;;5116865;27;20059;-75
2022/06/02 03:45:29;;;;;;;7.82;6.18;;;;;;;;;;5120814;27;20035;-76
2022/06/02 03:48:34;;;;;;;8.15;6.25;;;;;;;;;;5116943;27;20033;-73
2022/06/02 03:51:36;;;;;;;8.73;6.68;;;;;;;;;;5116000;27;20072;-72
2022/06/02 03:54:06;;;;;;;9.82;7.32;;;;;;;;;;5099024;27;20445;-76
2022/06/02 03:56:46;;;;;;;10.10;7.45;;;;;;;;;;5118966;27;20068;-76
2022/06/02 03:59:30;;;;;;;8.63;6.50;;;;;;;;;;5098622;27;20067;-75
2022/06/02 04:02:19;;;;;;;9.93;7.45;;;;;;;;;;5114754;27;20066;-74
2022/06/02 04:05:09;;;;;;;9.10;7.15;;;;;;;;;;5097142;27;20023;-75
2022/06/02 04:07:42;;;;;;;9.27;7.78;;;;;;;;;;5098573;27;20061;-73
2022/06/02 04:10:56;;;;;;;10.45;7.10;;;;;;;;;;5091024;27;20164;-75
2022/06/02 04:13:39;;;;;;;9.80;7.60;;;;;;;;;;5046096;27;20103;-73
2022/06/02 04:16:04;;;;;;;;;;;;;;;;;;5122008;27;20019;-73
2022/06/02 04:18:37;;;;;;;10.13;7.15;;;;;;;;;;5118069;27;19915;-73
2022/06/02 04:21:03;;;;;;;9.85;7.63;;;;;;;;;;5118576;27;20027;-76
2022/06/02 04:23:45;;;;;;;9.55;7.95;;;;;;;;;;5122950;27;20501;-76
2022/06/02 04:26:24;;;;;;;9.85;7.75;;;;;;;;;;5101395;27;20023;-72
2022/06/02 04:29:28;;;;;;;11.20;8.13;;;;;;;;;;5110782;27;20468;-75
2022/06/02 04:32:18;;;;;;;10.15;8.23;;;;;;;;;;5070290;28;20036;-76
2022/06/02 04:35:00;;;;;;;11.57;8.93;;;;;;;;;;5117969;27;20099;-74
2022/06/02 04:37:38;;;;;;;10.00;8.27;;;;;;;;;;5118572;27;20041;-76
2022/06/02 04:40:12;;;;;;;10.32;8.30;;;;;;;;;;5120623;27;20177;-73
2022/06/02 04:43:04;;;;;;;12.18;9.02;;;;;;;;;;5114255;27;20077;-73
2022/06/02 04:46:02;;;;;;;12.13;9.90;;;;;;;;;;5108382;27;20050;-73
2022/06/02 04:48:37;;;;;;;14.82;11.00;;;;;;;;;;5074374;27;20056;-73
2022/06/02 04:51:33;;;;;;;14.68;10.75;;;;;;;;;;5115437;27;20031;-75
2022/06/02 04:54:18;;;;;;;16.50;11.40;;;;;;;;;;5122740;27;20081;-73
2022/06/02 04:56:53;;;;;;;14.35;11.23;;;;;;;;;;5117893;27;20452;-76
2022/06/02 04:59:32;;;;;;;15.52;11.95;;;;;;;;;;5096238;27;20020;-75
2022/06/02 05:01:57;;;;;;;14.95;11.70;;;;;;;;;;5119200;27;20127;-73
2022/06/02 05:04:53;;;;;;;15.23;11.75;;;;;;;;;;5098944;28;20110;-75
2022/06/02 05:07:53;;;;;;;14.90;11.75;;;;;;;;;;5101671;27;21721;-72
2022/06/02 05:10:31;;;;;;;19.08;12.48;;;;;;;;;;5114081;27;20107;-72
2022/06/02 05:13:09;;;;;;;17.05;13.02;;;;;;;;;;5116948;27;20030;-75
2022/06/02 05:16:01;;;;;;;16.17;12.77;;;;;;;;;;5112877;27;20015;-73
2022/06/02 05:18:52;;;;;;;17.00;12.55;;;;;;;;;;5101689;27;20482;-73
2022/06/02 05:22:03;;;;;;;16.60;12.85;;;;;;;;;;5105043;27;20502;-76
2022/06/02 05:24:47;;;;;;;15.05;11.52;;;;;;;;;;5098757;27;20031;-73
2022/06/02 05:27:31;;;;;;;15.90;11.95;;;;;;;;;;5116907;27;20032;-75
2022/06/02 05:30:13;;;;;;;18.67;13.52;;;;;;;;;;5120848;27;20031;-75
2022/06/02 05:33:23;;;;;;;16.20;13.05;;;;;;;;;;5112730;27;20023;-72
2022/06/02 05:36:17;;;;;;;19.15;13.10;;;;;;;;;;5112717;27;20039;-73
2022/06/02 05:39:07;;;;;;;18.02;12.75;;;;;;;;;;5115333;27;20035;-73
2022/06/02 05:41:55;;;;;;;16.00;12.55;;;;;;;;;;5119000;27;20023;-75
2022/06/02 05:44:26;;;;;;;17.65;12.63;;;;;;;;;;5115010;27;20153;-73
2022/06/02 05:47:20;;;;;;;15.18;11.95;;;;;;;;;;5105394;27;20187;-76
2022/06/02 05:49:54;;;;;;;17.38;12.60;;;;;;;;;;5113703;27;20098;-75
2022/06/02 05:52:35;;;;;;;16.98;12.68;;;;;;;;;;5102648;27;20529;-76
2022/06/02 05:55:00;;;;;;;16.40;12.40;;;;;;;;;;5113368;27;20020;-75
2022/06/02 05:57:34;;;;;;;16.02;11.75;;;;;;;;;;5114423;28;20407;-75
2022/06/02 06:00:08;;;;;;;16.88;11.77;;;;;;;;;;5100039;28;20031;-72
2022/06/02 06:02:42;;;;;;;17.05;11.32;;;;;;;;;;5113771;28;20028;-75
2022/06/02 06:05:15;;;;;;;15.80;11.55;;;;;;;;;;5116680;28;21812;-73
2022/06/02 06:08:20;;;;;;;15.68;12.00;;;;;;;;;;5116019;28;20110;-75
2022/06/02 06:10:54;;;;;;;14.27;10.52;;;;;;;;;;5098596;28;20039;-76
2022/06/02 06:13:28;;;;;;;13.57;10.15;;;;;;;;;;5113400;28;20467;-72
2022/06/02 06:15:59;;;;;;;13.52;10.85;;;;;;;;;;5120822;28;20072;-73
2022/06/02 06:18:34;;;;;;;14.70;11.32;;;;;;;;;;5120298;28;20020;-73
2022/06/02 06:21:08;;;;;;;16.63;11.50;;;;;;;;;;5114336;28;20573;-73
2022/06/02 06:24:19;;;;;;;13.38;10.60;;;;;;;;;;5112866;27;20494;-75
2022/06/02 06:27:04;;;;;;;13.68;10.95;;;;;;;;;;5091017;28;20024;-74
2022/06/02 06:29:54;;;;;;;12.85;10.00;;;;;;;;;;5116343;28;20112;-74
2022/06/02 06:32:49;;;;;;;13.48;9.85;;;;;;;;;;5093277;28;20092;-76
2022/06/02 06:35:27;;;;;;;12.55;9.40;;;;;;;;;;5114136;27;20050;-75
2022/06/02 06:38:01;;;;;;;11.82;9.73;;;;;;;;;;5100720;27;20053;-75
2022/06/02 06:40:42;;;;;;;12.25;10.05;;;;;;;;;;5120208;27;20019;-75
2022/06/02 06:43:31;;;;;;;15.18;10.40;;;;;;;;;;5115327;27;20031;-73
2022/06/02 06:46:12;;;;;;;13.98;10.50;;;;;;;;;;5119963;27;20061;-73
2022/06/02 06:48:43;;;;;;;15.20;10.77;;;;;;;;;;5107438;27;20051;-75
2022/06/02 06:51:25;;;;;;;13.23;10.07;;;;;;;;;;5118411;27;20491;-76
2022/06/02 06:54:12;;;;;;;12.10;9.05;;;;;;;;;;5123779;27;20042;-75
2022/06/02 06:57:05;;;;;;;9.98;7.70;;;;;;;;;;5120413;27;20032;-76
2022/06/02 06:59:49;;;;;;;;;;;;;;;;;;5119361;27;20035;-73
2022/06/02 07:02:27;;;;;;;10.45;8.15;;;;;;;;;;5109990;27;20287;-73
2022/06/02 07:05:09;;;;;;;10.15;7.60;;;;;;;;;;5126453;27;20034;-73
2022/06/02 07:07:40;;;;;;;9.85;7.10;;;;;;;;;;5111518;27;20378;-74
2022/06/02 07:10:17;;;;;;;8.80;7.00;;;;;;;;;;5124405;27;20480;-75
2022/06/02 07:12:54;;;;;;;9.65;7.25;;;;;;;;;;5109394;27;20058;-73
2022/06/02 07:15:33;;;;;;;9.07;6.78;;;;;;;;;;5122446;27;20031;-72
2022/06/02 07:18:03;;;;;;;8.20;5.93;;;;;;;;;;5120528;27;20365;-75
2022/06/02 07:20:49;;;;;;;7.57;5.43;;;;;;;;;;5121083;27;20027;-75
2022/06/02 07:23:39;;;;;;;5.35;3.88;;;;;;;;;;5127342;27;20028;-74
2022/06/02 07:26:34;;;;;;;8.88;6.18;;;;;;;;;;5114527;27;20035;-76
2022/06/02 07:29:18;;;;;;;8.00;6.78;;;;;;;;;;5123460;27;20018;-75
2022/06/02 07:32:17;;;;;;;9.75;6.78;;;;;;;;;;5129654;27;20021;-73
2022/06/02 07:34:46;;;;;;;8.40;6.65;;;;;;;;;;5112822;27;20051;-76
2022/06/02 07:37:29;;;;;;;8.63;6.57;;;;;;;;;;5117002;27;20463;-73
2022/06/02 07:40:02;;;;;;;7.68;6.18;;;;;;;;;;5108211;27;20086;-74
2022/06/02 07:42:40;;;;;;;6.82;5.22;;;;;;;;;;5103957;27;20027;-75
2022/06/02 07:45:13;;;;;;;7.15;5.50;;;;;;;;;;5112742;27;20064;-76
2022/06/02 07:48:01;;;;;;;7.55;5.85;;;;;;;;;;5105592;27;20489;-75
2022/06/02 07:50:30;;;;;;;7.68;5.32;;;;;;;;;;5118551;27;20034;-75
2022/06/02 07:53:05;;;;;;;8.18;6.13;;;;;;;;;;5116464;27;21231;-76
2022/06/02 07:55:42;;;;;;;9.77;6.28;;;;;;;;;;5103524;27;20110;-73
2022/06/02 07:59:06;;;;;;;7.38;5.90;;;;;;;;;;5127137;27;20374;-73
2022/06/02 08:02:01;;;;;;;9.30;6.78;;;;;;;;;;5042791;28;20132;-73
2022/06/02 08:04:45;;;;;;;7.97;6.25;;;;;;;;;;5060081;28;20072;-76
2022/06/02 08:07:33;;;;;;;9.25;7.13;;;;;;;;;;5109296;27;20161;-76
2022/06/02 08:10:13;;;;;;;9.52;6.53;;;;;;;;;;5117575;27;20442;-76
2022/06/02 08:13:02;;;;;;;9.20;5.93;;;;;;;;;;5120188;27;20107;-76
2022/06/02 08:15:41;;;;;;;8.10;6.18;;;;;;;;;;5111793;27;20025;-75
2022/06/02 08:18:26;;;;;;;8.32;6.03;;;;;;;;;;5113646;27;20028;-73
2022/06/02 08:20:55;;;;;;;8.48;5.75;;;;;;;;;;5104458;27;20035;-73
2022/06/02 08:23:23;;;;;;;7.18;5.47;;;;;;;;;;5130057;27;20079;-76
2022/06/02 08:25:55;;;;;;;8.88;6.07;;;;;;;;;;5105270;27;20031;-75
2022/06/02 08:28:36;;;;;;;8.38;6.35;;;;;;;;;;5119665;27;20023;-75
2022/06/02 08:31:11;;;;;;;8.48;6.07;;;;;;;;;;5118202;27;20027;-73
2022/06/02 08:33:59;;;;;;;7.30;6.00;;;;;;;;;;5125041;27;20111;-74
2022/06/02 08:36:33;;;;;;;9.82;7.20;;;;;;;;;;5120205;27;20379;-76
2022/06/02 08:39:17;;;;;;;8.23;6.75;;;;;;;;;;5122728;27;20352;-76
2022/06/02 08:42:01;;;;;;;8.35;6.32;;;;;;;;;;5127280;27;20027;-73
2022/06/02 08:45:04;;;;;;;8.20;6.65;;;;;;;;;;5115685;27;20058;-75
2022/06/02 08:48:12;;;;;;;9.47;6.40;;;;;;;;;;5122726;27;20016;-74
2022/06/02 08:50:56;;;;;;;9.70;6.13;;;;;;;;;;5064507;27;20031;-75
2022/06/02 08:53:58;;;;;;;8.32;6.55;;;;;;;;;;5124154;27;20030;-73
2022/06/02 08:56:33;;;;;;;8.27;6.20;;;;;;;;;;5116536;27;20382;-75
2022/06/02 08:59:23;;;;;;;8.27;6.40;;;;;;;;;;5118935;27;20027;-76
2022/06/02 09:02:36;;;;;;;7.32;5.57;;;;;;;;;;5113493;27;20042;-76
2022/06/02 09:05:19;;;;;;;6.55;5.07;;;;;;;;;;5104184;27;20071;-73
2022/06/02 09:07:53;;;;;;;7.28;5.60;;;;;;;;;;5120570;27;20038;-74
2022/06/02 09:10:34;;;;;;;7.72;5.63;;;;;;;;;;5112651;27;20030;-76
2022/06/02 09:13:15;;;;;;;6.05;5.20;;;;;;;;;;5119123;27;21811;-74
2022/06/02 09:15:49;;;;;;;7.40;5.43;;;;;;;;;;5122298;27;20501;-73
2022/06/02 09:18:36;;;;;;;7.13;5.72;;;;;;;;;;5125994;27;20431;-74
2022/06/02 09:21:17;;;;;;;8.30;6.22;;;;;;;;;;5120086;27;20107;-73
2022/06/02 09:24:12;;;;;;;8.65;5.90;;;;;;;;;;5117808;27;20471;-76
2022/06/02 09:26:59;;;;;;;8.13;5.72;;;;;;;;;;5107189;27;20490;-73
2022/06/02 09:29:25;;;;;;;6.47;5.10;;;;;;;;;;5120174;27;20620;-76
2022/06/02 09:32:29;;;;;;;6.13;5.03;;;;;;;;;;5119183;27;20114;-73
2022/06/02 09:35:02;;;;;;;8.95;5.30;;;;;;;;;;5122623;27;20056;-74
2022/06/02 09:37:34;;;;;;;6.65;5.20;;;;;;;;;;5118111;27;20054;-76
2022/06/02 09:40:46;;;;;;;7.65;5.40;;;;;;;;;;5120567;27;20027;-74
2022/06/02 09:43:41;;;;;;;8.90;5.25;;;;;;;;;;5049689;28;20044;-74
2022/06/02 09:46:38;;;;;;;6.35;5.20;;;;;;;;;;5096052;27;20104;-74
2022/06/02 09:49:10;;;;;;;7.13;5.07;;;;;;;;;;5128742;27;20028;-76
2022/06/02 09:51:57;;;;;;;7.35;5.72;;;;;;;;;;5118993;27;20500;-75
2022/06/02 09:55:00;;;;;;;7.63;5.72;;;;;;;;;;5108105;28;20027;-76
2022/06/02 09:58:02;;;;;;;6.60;5.35;;;;;;;;;;5110649;27;20489;-76
2022/06/02 10:00:39;;;;;;;6.20;4.85;;;;;;;;;;5102922;28;20031;-74
2022/06/02 10:03:22;;;;;;;6.10;4.88;;;;;;;;;;5100513;27;20043;-74
2022/06/02 10:06:12;;;;;;;5.57;4.03;;;;;;;;;;5116326;28;20119;-75
2022/06/02 10:09:03;;;;;;;6.85;4.63;;;;;;;;;;5111450;28;20027;-76
2022/06/02 10:12:54;;;;;;;6.72;5.07;;;;;;;;;;5097381;27;20072;-75
2022/06/02 10:14:55;;;;;;;7.30;4.55;;;;;;;;;;5118323;27;20023;-75
2022/06/02 10:17:45;;;;;;;5.63;4.43;;;;;;;;;;5120720;27;20641;-74
2022/06/02 10:20:22;;;;;;;7.15;5.50;;;;;;;;;;5121158;27;20718;-72
2022/06/02 10:22:50;;;;;;;5.57;4.05;;;;;;;;;;5121556;27;20106;-68
2022/06/02 10:25:34;;;;;;;6.80;4.60;;;;;;;;;;5132636;27;20094;-73
2022/06/02 10:28:18;;;;;;;6.35;4.88;;;;;;;;;;5108810;27;20031;-71
2022/06/02 10:31:06;;;;;;;7.95;5.20;;;;;;;;;;5134882;27;20057;-70
2022/06/02 10:34:00;;;;;;;7.45;5.20;;;;;;;;;;5128468;27;20043;-73
2022/06/02 10:36:50;;;;;;;6.90;5.30;;;;;;;;;;5120533;27;20020;-73
2022/06/02 10:39:41;;;;;;;6.57;5.05;;;;;;;;;;5118885;27;20054;-71
2022/06/02 10:42:18;;;;;;;6.60;4.78;;;;;;;;;;5124898;27;20019;-73
2022/06/02 10:45:31;;;;;;;5.43;4.28;;;;;;;;;;5131616;27;20054;-72
2022/06/02 10:48:15;;;;;;;5.50;4.22;;;;;;;;;;5114457;27;20567;-73
2022/06/02 10:51:07;;;;;;;5.60;3.70;;;;;;;;;;5127092;27;20022;-71
2022/06/02 10:53:44;;;;;;;4.80;3.67;;;;;;;;;;5122218;27;20032;-70
2022/06/02 10:56:33;;;;;;;5.93;3.88;;;;;;;;;;5129377;27;20109;-72
2022/06/02 10:59:31;;;;;;;5.90;4.28;;;;;;;;;;5121609;27;20027;-73
2022/06/02 11:02:27;;;;;;;5.05;3.72;;;;;;;;;;5121401;27;20027;-72
2022/06/02 11:05:37;;;;;;;4.95;4.10;;;;;;;;;;5107205;27;20563;-72
2022/06/02 11:08:25;;;;;;;5.93;4.80;;;;;;;;;;5121531;27;20015;-68
2022/06/02 11:11:26;;;;;;;7.65;4.72;;;;;;;;;;5131604;27;20027;-71
2022/06/02 11:14:18;;;;;;;5.00;4.00;;;;;;;;;;5129366;27;20028;-73
2022/06/02 11:17:13;;;;;;;5.40;4.10;;;;;;;;;;5119155;27;20096;-68
2022/06/02 11:20:06;;;;;;;5.13;3.88;;;;;;;;;;5125867;27;20038;-73
2022/06/02 11:22:49;;;;;;;5.10;3.90;;;;;;;;;;5120930;27;20028;-68
2022/06/02 11:25:26;;;;;;;6.05;3.17;;;;;;;;;;5124284;27;20083;-71
2022/06/02 11:28:06;;;;;;;8.25;3.35;;;;;;;;;;5122687;27;20033;-73
2022/06/02 11:31:08;;;;;;;5.35;3.35;;;;;;;;;;5121225;27;20038;-73
2022/06/02 11:33:58;;;;;;;4.47;3.63;;;;;;;;;;5116299;27;20067;-73
2022/06/02 11:36:37;;;;;;;4.90;3.75;;;;;;;;;;5102452;27;20047;-70
2022/06/02 11:39:36;;;;;;;5.97;3.95;;;;;;;;;;5126812;27;20467;-73
2022/06/02 11:42:25;;;;;;;6.22;4.00;;;;;;;;;;5123318;27;20059;-69
2022/06/02 11:45:06;;;;;;;5.28;3.60;;;;;;;;;;5108474;27;20044;-72
2022/06/02 11:47:41;;;;;;;5.85;3.90;;;;;;;;;;5124613;27;20084;-69
2022/06/02 11:50:33;;;;;;;5.90;3.25;;;;;;;;;;5117159;27;20360;-72
2022/06/02 11:53:26;;;;;;;5.13;3.92;;;;;;;;;;5120313;27;20472;-68
2022/06/02 11:56:25;;;;;;;5.60;3.42;;;;;;;;;;5123453;27;20031;-71
2022/06/02 11:59:16;;;;;;;5.38;3.70;;;;;;;;;;5124757;27;20019;-73
2022/06/02 12:02:08;;;;;;;6.13;3.80;;;;;;;;;;5129685;27;20076;-71
2022/06/02 12:04:51;;;;;;;5.27;3.57;;;;;;;;;;5128398;27;20030;-73
2022/06/02 12:07:22;;;;;;;4.93;3.60;;;;;;;;;;5122695;27;20608;-72
2022/06/02 12:10:02;;;;;;;5.03;3.88;;;;;;;;;;5129105;27;20030;-73
2022/06/02 12:12:45;;;;;;;6.60;4.50;;;;;;;;;;5117539;27;20099;-72
2022/06/02 12:15:38;;;;;;;5.50;4.10;;;;;;;;;;5098692;27;20038;-73
2022/06/02 12:18:13;;;;;;;6.25;4.70;;;;;;;;;;5117208;27;20055;-72
2022/06/02 12:21:03;;;;;;;7.38;5.10;;;;;;;;;;5122285;27;20027;-72
2022/06/02 12:23:34;;;;;;;5.45;3.67;;;;;;;;;;5119074;27;20099;-72
2022/06/02 12:26:14;;;;;;;6.65;4.20;;;;;;;;;;5122307;27;20585;-73
2022/06/02 12:29:16;;;;;;;5.63;4.20;;;;;;;;;;5117970;27;20024;-72
2022/06/02 12:32:20;;;;;;;5.97;4.28;;;;;;;;;;5122538;27;20080;-73
2022/06/02 12:34:51;;;;;;;;;;;;;;;;;;5094476;28;20071;-71
2022/06/02 12:37:47;;;;;;;6.15;3.83;;;;;;;;;;5127560;27;19922;-70
2022/06/02 12:40:33;;;;;;;4.68;3.72;;;;;;;;;;5127884;27;20023;-71
2022/06/02 12:43:20;;;;;;;5.63;3.85;;;;;;;;;;5118432;27;20023;-72
2022/06/02 12:46:07;;;;;;;6.43;4.10;;;;;;;;;;5125025;27;20035;-72
2022/06/02 12:48:54;;;;;;;7.78;4.40;;;;;;;;;;5118251;27;20024;-73
2022/06/02 12:51:34;;;;;;;6.70;3.63;;;;;;;;;;5133905;27;20029;-72
2022/06/02 12:54:47;;;;;;;5.70;3.92;;;;;;;;;;5124573;27;20427;-68
2022/06/02 12:57:13;;;;;;;5.07;3.58;;;;;;;;;;5108486;27;20063;-72
2022/06/02 13:00:03;;;;;;;4.70;3.78;;;;;;;;;;5087491;27;20487;-71
2022/06/02 13:03:06;;;;;;;5.35;4.20;;;;;;;;;;5114081;27;20094;-72
2022/06/02 13:05:49;;;;;;;6.90;4.50;;;;;;;;;;5109740;27;20053;-71
2022/06/02 13:08:41;;;;;;;;;;;;;;;;;;5115332;27;20048;-71
2022/06/02 13:11:49;;;;;;;5.72;3.38;;;;;;;;;;5105137;27;19923;-71
2022/06/02 13:14:48;;;;;;;5.18;3.80;;;;;;;;;;5066873;27;20035;-70
2022/06/02 13:18:00;;;;;;;4.72;3.58;;;;;;;;;;5095137;27;20118;-72
2022/06/02 13:20:56;;;;;;;5.53;3.78;;;;;;;;;;5115122;27;20031;-73
2022/06/02 13:23:59;;;;;;;5.15;4.15;;;;;;;;;;5111446;27;20034;-72
2022/06/02 13:27:06;;;;;;;5.47;3.58;;;;;;;;;;5109672;27;20073;-69
2022/06/02 13:30:02;;;;;;;5.85;3.63;;;;;;;;;;5115474;27;20031;-70
2022/06/02 13:32:52;;;;;;;4.45;3.53;;;;;;;;;;5115185;27;20068;-71
2022/06/02 13:35:29;;;;;;;4.25;3.10;;;;;;;;;;5113602;27;20058;-71
2022/06/02 13:38:22;;;;;;;3.65;2.80;;;;;;;;;;5111331;27;20091;-70
2022/06/02 13:40:50;;;;;;;5.75;4.10;;;;;;;;;;5108416;27;20061;-72
2022/06/02 13:43:37;;;;;;;4.90;3.55;;;;;;;;;;5113158;27;20487;-72
2022/06/02 13:46:41;;;;;;;4.43;3.40;;;;;;;;;;5115861;27;20414;-72
2022/06/02 13:49:19;;;;;;;4.38;3.20;;;;;;;;;;5126597;27;20023;-69
2022/06/02 13:52:09;;;;;;;4.90;3.70;;;;;;;;;;5101154;27;20550;-68
2022/06/02 13:58:05;;;;;;;6.05;4.38;;;;;;;;;;5108940;27;20115;-72
2022/06/02 14:01:19;;;;;;;5.22;3.85;;;;;;;;;;5095031;27;20055;-71
2022/06/02 14:04:39;;;;;;;4.07;3.20;;;;;;;;;;5043983;28;20046;-72
2022/06/02 14:08:02;;;;;;;3.85;2.90;;;;;;;;;;5067516;28;20417;-69
2022/06/02 14:10:52;;;;;;;3.88;2.83;;;;;;;;;;5015420;28;20070;-71
2022/06/02 14:13:41;;;;;;;4.32;2.63;;;;;;;;;;5019703;28;20037;-72
2022/06/02 14:16:16;;;;;;;5.60;3.90;;;;;;;;;;5095972;27;20039;-72
2022/06/02 14:19:05;;;;;;;3.92;3.17;;;;;;;;;;5114801;27;20075;-72
2022/06/02 14:21:39;;;;;;;4.32;3.08;;;;;;;;;;5107178;27;20495;-71
2022/06/02 14:24:07;;;;;;;5.60;3.67;;;;;;;;;;5110036;28;20516;-72
2022/06/02 14:27:22;;;;;;;4.55;3.30;;;;;;;;;;5110682;27;20027;-73
2022/06/02 14:30:05;;;;;;;3.72;2.20;;;;;;;;;;5037059;28;20037;-71
2022/06/02 14:32:58;;;;;;;4.38;2.47;;;;;;;;;;5040505;28;20672;-69
2022/06/02 14:35:36;;;;;;;3.65;2.38;;;;;;;;;;5081916;28;20076;-71
2022/06/02 14:38:21;;;;;;;3.72;2.42;;;;;;;;;;5094995;28;20432;-72
2022/06/02 14:40:55;;;;;;;4.25;2.70;;;;;;;;;;5107854;28;20035;-72
2022/06/02 14:43:57;;;;;;;4.10;2.40;;;;;;;;;;5109668;27;20410;-71
2022/06/02 14:46:55;;;;;;;4.15;2.38;;;;;;;;;;5104621;28;20031;-71
2022/06/02 14:49:40;;;;;;;4.72;2.85;;;;;;;;;;5108636;27;20582;-69
2022/06/02 14:52:39;;;;;;;3.83;2.92;;;;;;;;;;5091138;28;20039;-72
2022/06/02 14:55:30;;;;;;;4.38;2.92;;;;;;;;;;5105248;28;20578;-72
2022/06/02 14:58:29;;;;;;;3.33;2.20;;;;;;;;;;5112226;27;20089;-72
2022/06/02 15:01:23;;;;;;;3.30;2.45;;;;;;;;;;5085145;27;20692;-73
2022/06/02 15:04:16;;;;;;;3.45;2.38;;;;;;;;;;5111517;27;20088;-72
2022/06/02 15:07:01;;;;;;;3.90;2.63;;;;;;;;;;5109043;27;20321;-72
2022/06/02 15:09:41;;;;;;;4.13;2.45;;;;;;;;;;5097695;27;20118;-72
2022/06/02 15:12:14;;;;;;;2.88;2.00;;;;;;;;;;5109650;27;20130;-72
2022/06/02 15:15:08;;;;;;;4.45;2.50;;;;;;;;;;5113985;27;20076;-73
2022/06/02 15:17:47;;;;;;;4.85;2.70;;;;;;;;;;5106010;27;20102;-71
2022/06/02 15:20:23;;;;;;;3.08;2.10;;;;;;;;;;5093949;27;20023;-73
2022/06/02 15:23:04;;;;;;;3.55;2.28;;;;;;;;;;5108257;27;20031;-73
2022/06/02 15:25:37;;;;;;;3.42;2.35;;;;;;;;;;5112557;27;20470;-73
2022/06/02 15:28:38;;;;;;;3.22;2.35;;;;;;;;;;5119072;27;20070;-73
2022/06/02 15:31:49;;;;;;;3.17;1.80;;;;;;;;;;5117126;27;20042;-73
2022/06/02 15:34:33;;;;;;;2.75;1.73;;;;;;;;;;5055920;28;20183;-72
2022/06/02 15:37:19;;;;;;;2.53;1.90;;;;;;;;;;5112643;27;20112;-72
2022/06/02 15:40:26;;;;;;;2.85;1.60;;;;;;;;;;5098891;27;20554;-72
2022/06/02 15:43:07;;;;;;;2.20;1.30;;;;;;;;;;5044962;28;20028;-71
2022/06/02 15:46:03;;;;;;;2.33;1.35;;;;;;;;;;5090327;27;20038;-72
2022/06/02 15:49:05;;;;;;;2.20;1.60;;;;;;;;;;5097804;27;20035;-71
2022/06/02 15:52:00;;;;;;;2.40;1.25;;;;;;;;;;5113781;27;20102;-71
2022/06/02 15:54:47;;;;;;;3.13;1.48;;;;;;;;;;5082960;27;20040;-72
2022/06/02 15:57:29;;;;;;;2.42;1.65;;;;;;;;;;5113308;27;20030;-69
2022/06/02 16:00:25;;;;;;;3.65;1.83;;;;;;;;;;5120369;27;20026;-73
2022/06/02 16:03:08;;;;;;;3.70;2.00;;;;;;;;;;5116061;27;20097;-68
2022/06/02 16:05:43;;;;;;;2.85;1.90;;;;;;;;;;5117788;27;20024;-69
2022/06/02 16:08:26;;;;;;;2.67;1.52;;;;;;;;;;5115945;27;20032;-73
2022/06/02 16:11:26;;;;;;;2.25;1.50;;;;;;;;;;5094822;27;20043;-71
2022/06/02 16:14:10;;;;;;;2.33;1.60;;;;;;;;;;5115340;27;20030;-71
2022/06/02 16:17:03;;;;;;;2.55;1.55;;;;;;;;;;5110416;27;20101;-72
2022/06/02 16:19:43;;;;;;;2.90;1.80;;;;;;;;;;5087967;27;20031;-72
2022/06/02 16:22:17;;;;;;;3.47;1.90;;;;;;;;;;5108974;27;20036;-70
2022/06/02 16:25:13;;;;;;;2.47;1.60;;;;;;;;;;5109567;27;20036;-72
2022/06/02 16:27:56;;;;;;;2.40;1.70;;;;;;;;;;5096363;27;20122;-71
2022/06/02 16:30:24;;;;;;;;;;;;;;;;;;5112687;27;20327;-72
2022/06/02 16:33:17;;;;;;;2.78;1.83;;;;;;;;;;5089272;27;20015;-71
2022/06/02 16:36:08;;;;;;;2.88;1.83;;;;;;;;;;5110565;27;20035;-70